createdAt,value
2022-11-25T00:00:09.909Z,84.93
2022-11-25T00:01:09.894Z,84.72
2022-11-25T00:02:09.957Z,84.62
2022-11-25T00:03:09.919Z,84.72
2022-11-25T00:04:09.914Z,84.72
2022-11-25T00:05:09.857Z,84.72
2022-11-25T00:06:09.851Z,84.83
2022-11-25T00:07:09.915Z,85.03
2022-11-25T00:08:09.830Z,84.93
2022-11-25T00:09:09.869Z,84.93
2022-11-25T00:10:09.825Z,84.72
2022-11-25T00:11:09.798Z,84.83
2022-11-25T00:12:09.780Z,84.83
2022-11-25T00:13:09.765Z,84.83
2022-11-25T00:14:09.810Z,84.83
2022-11-25T00:15:09.750Z,84.72
2022-11-25T00:16:09.763Z,84.72
2022-11-25T00:17:09.810Z,84.72
2022-11-25T00:18:09.707Z,84.83
2022-11-25T00:19:09.725Z,84.93
2022-11-25T00:20:09.681Z,84.83
2022-11-25T00:21:09.672Z,84.83
2022-11-25T00:22:09.673Z,84.83
2022-11-25T00:23:09.673Z,84.83
2022-11-25T00:24:09.731Z,84.72
2022-11-25T00:25:09.629Z,84.72
2022-11-25T00:26:09.612Z,84.69
2022-11-25T00:27:09.609Z,84.83
2022-11-25T00:28:09.598Z,84.79
2022-11-25T00:29:09.595Z,84.62
2022-11-25T00:30:09.581Z,84.52
2022-11-25T00:31:09.559Z,84.83
2022-11-25T00:32:09.616Z,85.03
2022-11-25T00:33:09.545Z,84.93
2022-11-25T00:34:09.519Z,85.14
2022-11-25T00:35:09.512Z,85.24
2022-11-25T00:36:09.509Z,85.14
2022-11-25T00:37:09.496Z,85.14
2022-11-25T00:38:09.493Z,85.03
2022-11-25T00:39:09.476Z,85.03
2022-11-25T00:40:09.473Z,85.24
2022-11-25T00:41:09.450Z,85.34
2022-11-25T00:42:09.446Z,85.44
2022-11-25T00:43:09.421Z,85.44
2022-11-25T00:44:09.423Z,85.44
2022-11-25T00:45:09.407Z,85.44
2022-11-25T00:46:09.482Z,85.44
2022-11-25T00:47:09.384Z,85.34
2022-11-25T00:48:09.372Z,85.44
2022-11-25T00:49:09.360Z,85.55
2022-11-25T00:50:09.347Z,85.44
2022-11-25T00:51:09.345Z,85.44
2022-11-25T00:52:09.333Z,85.55
2022-11-25T00:53:09.328Z,85.55
2022-11-25T00:54:09.310Z,85.44
2022-11-25T00:55:09.295Z,85.55
2022-11-25T00:56:09.287Z,85.55
2022-11-25T00:57:09.276Z,85.44
2022-11-25T00:58:09.263Z,85.65
2022-11-25T00:59:09.251Z,85.75
2022-11-25T01:00:09.232Z,85.75
2022-11-25T01:01:09.345Z,85.59
2022-11-25T01:02:09.239Z,85.59
2022-11-25T01:03:09.210Z,85.69
2022-11-25T01:04:09.188Z,85.89
2022-11-25T01:05:09.187Z,86.00
2022-11-25T01:06:09.191Z,86.00
2022-11-25T01:07:09.232Z,86.00
2022-11-25T01:08:09.155Z,86.21
2022-11-25T01:09:09.140Z,86.31
2022-11-25T01:10:09.127Z,86.31
2022-11-25T01:11:09.114Z,86.21
2022-11-25T01:12:09.120Z,86.31
2022-11-25T01:13:09.084Z,86.41
2022-11-25T01:14:09.080Z,86.52
2022-11-25T01:15:09.068Z,86.41
2022-11-25T01:16:09.090Z,86.52
2022-11-25T01:17:09.045Z,86.61
2022-11-25T01:18:09.046Z,86.52
2022-11-25T01:19:09.027Z,86.52
2022-11-25T01:20:09.018Z,86.52
2022-11-25T01:21:08.994Z,86.61
2022-11-25T01:22:08.985Z,86.76
2022-11-25T01:23:08.993Z,86.87
2022-11-25T01:24:08.966Z,86.76
2022-11-25T01:25:08.962Z,86.76
2022-11-25T01:26:08.944Z,86.87
2022-11-25T01:27:08.929Z,87.07
2022-11-25T01:28:08.918Z,87.17
2022-11-25T01:29:08.916Z,87.17
2022-11-25T01:30:08.899Z,87.07
2022-11-25T01:31:08.996Z,87.07
2022-11-25T01:32:08.925Z,87.07
2022-11-25T01:33:08.863Z,87.17
2022-11-25T01:34:08.857Z,87.27
2022-11-25T01:35:08.857Z,87.27
2022-11-25T01:36:08.830Z,87.27
2022-11-25T01:37:08.812Z,87.27
2022-11-25T01:38:08.805Z,87.38
2022-11-25T01:39:08.803Z,87.38
2022-11-25T01:40:08.798Z,87.38
2022-11-25T01:41:08.776Z,87.38
2022-11-25T01:42:08.768Z,87.27
2022-11-25T01:43:08.743Z,87.38
2022-11-25T01:44:08.737Z,87.38
2022-11-25T01:45:08.721Z,87.38
2022-11-25T01:46:08.818Z,87.48
2022-11-25T01:47:08.727Z,87.48
2022-11-25T01:48:08.692Z,87.59
2022-11-25T01:49:08.708Z,87.59
2022-11-25T01:50:08.669Z,87.59
2022-11-25T01:51:08.661Z,87.69
2022-11-25T01:52:08.643Z,87.65
2022-11-25T01:53:08.643Z,87.54
2022-11-25T01:54:08.638Z,87.54
2022-11-25T01:55:08.645Z,87.44
2022-11-25T01:56:08.609Z,87.44
2022-11-25T01:57:08.589Z,87.34
2022-11-25T01:58:08.580Z,87.44
2022-11-25T01:59:08.574Z,87.54
2022-11-25T02:00:08.562Z,87.54
2022-11-25T02:01:08.669Z,87.44
2022-11-25T02:02:08.598Z,87.44
2022-11-25T02:03:08.530Z,87.44
2022-11-25T02:04:08.509Z,87.40
2022-11-25T02:05:08.506Z,87.30
2022-11-25T02:06:08.501Z,87.19
2022-11-25T02:07:08.597Z,86.99
2022-11-25T02:08:08.466Z,86.99
2022-11-25T02:09:08.476Z,86.99
2022-11-25T02:10:08.458Z,86.99
2022-11-25T02:11:08.432Z,86.99
2022-11-25T02:12:08.424Z,86.99
2022-11-25T02:13:08.406Z,86.88
2022-11-25T02:14:08.399Z,86.79
2022-11-25T02:15:08.401Z,86.79
2022-11-25T02:16:08.430Z,86.79
2022-11-25T02:17:08.361Z,86.68
2022-11-25T02:18:08.353Z,86.74
2022-11-25T02:19:08.340Z,86.64
2022-11-25T02:20:08.335Z,86.54
2022-11-25T02:21:08.316Z,86.43
2022-11-25T02:22:08.325Z,86.43
2022-11-25T02:23:08.288Z,86.33
2022-11-25T02:24:08.283Z,86.43
2022-11-25T02:25:08.277Z,86.54
2022-11-25T02:26:08.270Z,86.43
2022-11-25T02:27:08.257Z,86.33
2022-11-25T02:28:08.245Z,86.33
2022-11-25T02:29:08.235Z,86.33
2022-11-25T02:30:08.239Z,86.43
2022-11-25T02:31:08.216Z,86.43
2022-11-25T02:32:08.294Z,86.43
2022-11-25T02:33:08.181Z,86.43
2022-11-25T02:34:08.190Z,86.33
2022-11-25T02:35:08.160Z,86.33
2022-11-25T02:36:08.140Z,86.33
2022-11-25T02:37:08.132Z,86.23
2022-11-25T02:38:08.116Z,86.33
2022-11-25T02:39:08.107Z,86.33
2022-11-25T02:40:08.123Z,86.33
2022-11-25T02:41:08.085Z,86.23
2022-11-25T02:42:08.093Z,86.33
2022-11-25T02:43:08.072Z,86.43
2022-11-25T02:44:08.059Z,86.43
2022-11-25T02:45:08.059Z,86.40
2022-11-25T02:46:08.080Z,86.43
2022-11-25T02:47:08.020Z,86.43
2022-11-25T02:48:08.005Z,86.33
2022-11-25T02:49:09.714Z,86.43
2022-11-25T02:50:07.986Z,86.43
2022-11-25T02:51:07.995Z,86.50
2022-11-25T02:52:07.969Z,86.40
2022-11-25T02:53:07.947Z,86.29
2022-11-25T02:54:07.949Z,86.19
2022-11-25T02:55:07.930Z,86.29
2022-11-25T02:56:07.918Z,86.19
2022-11-25T02:57:07.916Z,86.08
2022-11-25T02:58:07.897Z,86.08
2022-11-25T02:59:07.883Z,86.08
2022-11-25T03:00:07.884Z,86.08
2022-11-25T03:01:07.944Z,86.08
2022-11-25T03:02:07.920Z,85.98
2022-11-25T03:03:07.861Z,85.98
2022-11-25T03:04:07.836Z,85.88
2022-11-25T03:05:07.810Z,85.78
2022-11-25T03:06:07.806Z,85.78
2022-11-25T03:07:07.805Z,85.78
2022-11-25T03:08:07.785Z,85.74
2022-11-25T03:09:07.777Z,85.63
2022-11-25T03:10:07.760Z,85.53
2022-11-25T03:11:07.753Z,85.33
2022-11-25T03:12:07.734Z,85.43
2022-11-25T03:13:07.743Z,85.33
2022-11-25T03:14:07.715Z,85.33
2022-11-25T03:15:07.709Z,85.33
2022-11-25T03:16:07.746Z,85.43
2022-11-25T03:17:07.685Z,85.43
2022-11-25T03:18:07.671Z,85.33
2022-11-25T03:19:07.676Z,85.22
2022-11-25T03:20:07.656Z,85.12
2022-11-25T03:21:07.640Z,85.02
2022-11-25T03:22:07.626Z,85.12
2022-11-25T03:23:07.615Z,85.12
2022-11-25T03:24:07.624Z,85.12
2022-11-25T03:25:07.603Z,85.12
2022-11-25T03:26:07.574Z,84.91
2022-11-25T03:27:07.570Z,85.02
2022-11-25T03:28:07.567Z,85.02
2022-11-25T03:29:07.560Z,85.02
2022-11-25T03:30:07.547Z,85.02
2022-11-25T03:31:07.525Z,85.12
2022-11-25T03:32:09.731Z,85.02
2022-11-25T03:33:07.531Z,85.12
2022-11-25T03:34:07.498Z,85.02
2022-11-25T03:35:07.487Z,84.81
2022-11-25T03:36:07.469Z,84.81
2022-11-25T03:37:07.550Z,84.81
2022-11-25T03:38:07.446Z,84.91
2022-11-25T03:39:07.442Z,84.91
2022-11-25T03:40:07.426Z,85.02
2022-11-25T03:41:07.437Z,85.02
2022-11-25T03:42:07.391Z,84.91
2022-11-25T03:43:07.463Z,84.91
2022-11-25T03:44:07.379Z,84.98
2022-11-25T03:45:07.372Z,85.08
2022-11-25T03:46:07.459Z,85.08
2022-11-25T03:47:07.387Z,85.18
2022-11-25T03:48:07.341Z,85.08
2022-11-25T03:49:07.316Z,85.02
2022-11-25T03:50:07.317Z,85.12
2022-11-25T03:51:07.300Z,85.33
2022-11-25T03:52:07.296Z,85.33
2022-11-25T03:53:07.284Z,85.22
2022-11-25T03:54:07.267Z,85.33
2022-11-25T03:55:07.253Z,85.43
2022-11-25T03:56:07.245Z,85.53
2022-11-25T03:57:07.231Z,85.53
2022-11-25T03:58:07.237Z,85.43
2022-11-25T03:59:07.233Z,85.28
2022-11-25T04:00:07.193Z,85.28
2022-11-25T04:01:07.255Z,85.18
2022-11-25T04:02:07.268Z,85.08
2022-11-25T04:03:07.170Z,85.18
2022-11-25T04:04:07.155Z,85.18
2022-11-25T04:05:07.132Z,85.18
2022-11-25T04:06:07.132Z,85.08
2022-11-25T04:07:07.119Z,85.08
2022-11-25T04:08:07.212Z,85.18
2022-11-25T04:09:07.108Z,85.18
2022-11-25T04:10:07.080Z,85.39
2022-11-25T04:11:07.079Z,85.28
2022-11-25T04:12:07.062Z,85.18
2022-11-25T04:13:07.051Z,85.28
2022-11-25T04:14:07.039Z,85.18
2022-11-25T04:15:07.040Z,85.28
2022-11-25T04:16:07.010Z,85.60
2022-11-25T04:17:07.050Z,85.49
2022-11-25T04:18:07.001Z,85.49
2022-11-25T04:19:06.976Z,85.49
2022-11-25T04:20:06.964Z,85.49
2022-11-25T04:21:06.980Z,85.70
2022-11-25T04:22:06.942Z,85.80
2022-11-25T04:23:06.940Z,85.70
2022-11-25T04:24:06.930Z,85.70
2022-11-25T04:25:06.924Z,86.00
2022-11-25T04:26:06.909Z,86.11
2022-11-25T04:27:06.893Z,86.21
2022-11-25T04:28:06.877Z,86.52
2022-11-25T04:29:06.879Z,86.83
2022-11-25T04:30:06.859Z,87.24
2022-11-25T04:31:07.009Z,87.45
2022-11-25T04:32:06.827Z,87.65
2022-11-25T04:33:06.818Z,87.59
2022-11-25T04:34:06.818Z,87.69
2022-11-25T04:35:06.792Z,87.90
2022-11-25T04:36:06.800Z,88.20
2022-11-25T04:37:06.782Z,88.41
2022-11-25T04:38:06.765Z,88.51
2022-11-25T04:39:06.750Z,88.51
2022-11-25T04:40:06.745Z,88.62
2022-11-25T04:41:06.733Z,88.72
2022-11-25T04:42:06.734Z,88.82
2022-11-25T04:43:10.468Z,88.92
2022-11-25T04:44:06.707Z,88.92
2022-11-25T04:45:22.394Z,88.92
2022-11-25T04:46:14.056Z,88.92
2022-11-25T04:47:06.709Z,88.96
2022-11-25T04:48:06.662Z,88.96
2022-11-25T04:49:06.638Z,88.96
2022-11-25T04:50:06.650Z,89.13
2022-11-25T04:51:06.615Z,89.13
2022-11-25T04:52:06.611Z,89.13
2022-11-25T04:53:06.588Z,89.17
2022-11-25T04:54:06.591Z,89.13
2022-11-25T04:55:06.621Z,89.17
2022-11-25T04:56:06.587Z,89.03
2022-11-25T04:57:06.561Z,89.07
2022-11-25T04:58:06.540Z,89.17
2022-11-25T04:59:06.523Z,89.07
2022-11-25T05:00:06.515Z,89.07
2022-11-25T05:01:06.602Z,89.07
2022-11-25T05:02:06.523Z,89.07
2022-11-25T05:03:06.494Z,89.03
2022-11-25T05:04:06.480Z,89.13
2022-11-25T05:05:06.475Z,89.23
2022-11-25T05:06:06.608Z,89.23
2022-11-25T05:07:06.497Z,89.13
2022-11-25T05:08:06.420Z,89.13
2022-11-25T05:09:06.429Z,89.23
2022-11-25T05:10:06.435Z,89.23
2022-11-25T05:11:06.391Z,89.34
2022-11-25T05:12:06.398Z,89.28
2022-11-25T05:13:06.381Z,89.28
2022-11-25T05:14:06.358Z,89.38
2022-11-25T05:15:06.361Z,89.38
2022-11-25T05:16:06.340Z,89.38
2022-11-25T05:17:06.380Z,89.48
2022-11-25T05:18:06.391Z,89.69
2022-11-25T05:19:06.302Z,89.79
2022-11-25T05:20:06.319Z,89.79
2022-11-25T05:21:06.282Z,89.89
2022-11-25T05:22:06.320Z,89.89
2022-11-25T05:23:06.253Z,90.00
2022-11-25T05:24:06.252Z,90.00
2022-11-25T05:25:06.234Z,90.00
2022-11-25T05:26:06.228Z,90.09
2022-11-25T05:27:06.204Z,90.09
2022-11-25T05:28:06.211Z,90.09
2022-11-25T05:29:06.183Z,90.09
2022-11-25T05:30:06.197Z,90.09
2022-11-25T05:31:06.259Z,90.00
2022-11-25T05:32:06.154Z,90.00
2022-11-25T05:33:06.149Z,90.00
2022-11-25T05:34:06.137Z,90.00
2022-11-25T05:35:06.132Z,89.89
2022-11-25T05:36:06.130Z,89.89
2022-11-25T05:37:06.118Z,90.00
2022-11-25T05:38:06.102Z,90.09
2022-11-25T05:39:06.084Z,90.09
2022-11-25T05:40:06.066Z,90.09
2022-11-25T05:41:06.083Z,90.09
2022-11-25T05:42:06.051Z,90.09
2022-11-25T05:43:06.032Z,90.20
2022-11-25T05:44:06.030Z,90.30
2022-11-25T05:45:06.006Z,90.30
2022-11-25T05:46:06.095Z,90.30
2022-11-25T05:47:05.989Z,90.41
2022-11-25T05:48:05.980Z,90.51
2022-11-25T05:49:05.990Z,90.51
2022-11-25T05:50:05.951Z,90.51
2022-11-25T05:51:05.944Z,90.61
2022-11-25T05:52:05.963Z,90.72
2022-11-25T05:53:05.922Z,90.72
2022-11-25T05:54:05.907Z,90.81
2022-11-25T05:55:05.893Z,90.81
2022-11-25T05:56:05.905Z,90.92
2022-11-25T05:57:05.871Z,90.92
2022-11-25T05:58:05.900Z,91.02
2022-11-25T05:59:05.857Z,91.02
2022-11-25T06:00:05.867Z,91.13
2022-11-25T06:01:05.828Z,91.23
2022-11-25T06:02:05.907Z,91.33
2022-11-25T06:03:05.967Z,91.33
2022-11-25T06:04:05.810Z,91.33
2022-11-25T06:05:05.786Z,91.44
2022-11-25T06:06:05.770Z,91.53
2022-11-25T06:07:05.763Z,91.53
2022-11-25T06:08:05.752Z,91.64
2022-11-25T06:09:05.774Z,91.64
2022-11-25T06:10:05.729Z,91.64
2022-11-25T06:11:05.715Z,91.64
2022-11-25T06:12:05.707Z,91.74
2022-11-25T06:13:05.693Z,91.74
2022-11-25T06:14:05.707Z,91.78
2022-11-25T06:15:05.671Z,91.78
2022-11-25T06:16:07.801Z,91.78
2022-11-25T06:17:05.656Z,91.78
2022-11-25T06:18:05.645Z,91.89
2022-11-25T06:19:05.630Z,91.89
2022-11-25T06:20:05.688Z,91.99
2022-11-25T06:21:05.619Z,91.99
2022-11-25T06:22:05.593Z,91.99
2022-11-25T06:23:05.584Z,91.99
2022-11-25T06:24:05.579Z,92.10
2022-11-25T06:25:05.561Z,92.10
2022-11-25T06:26:05.555Z,92.10
2022-11-25T06:27:05.533Z,92.20
2022-11-25T06:28:12.818Z,92.20
2022-11-25T06:29:05.612Z,92.20
2022-11-25T06:30:05.502Z,92.30
2022-11-25T06:31:05.536Z,92.30
2022-11-25T06:32:05.479Z,92.30
2022-11-25T06:33:05.501Z,92.40
2022-11-25T06:34:05.452Z,92.40
2022-11-25T06:35:05.443Z,92.50
2022-11-25T06:36:05.429Z,92.50
2022-11-25T06:37:05.416Z,92.50
2022-11-25T06:38:05.413Z,92.50
2022-11-25T06:39:05.423Z,92.50
2022-11-25T06:40:05.381Z,92.50
2022-11-25T06:41:05.391Z,92.61
2022-11-25T06:42:05.365Z,92.61
2022-11-25T06:43:05.375Z,92.61
2022-11-25T06:44:05.341Z,92.61
2022-11-25T06:45:05.330Z,92.50
2022-11-25T06:46:05.392Z,92.50
2022-11-25T06:47:05.305Z,92.50
2022-11-25T06:48:05.305Z,92.50
2022-11-25T06:49:05.331Z,92.61
2022-11-25T06:50:05.293Z,92.50
2022-11-25T06:51:05.294Z,92.61
2022-11-25T06:52:05.254Z,92.50
2022-11-25T06:53:05.256Z,92.50
2022-11-25T06:54:05.305Z,92.50
2022-11-25T06:55:05.226Z,92.50
2022-11-25T06:56:05.260Z,92.61
2022-11-25T06:57:05.210Z,92.61
2022-11-25T06:58:33.942Z,92.61
2022-11-25T06:59:05.228Z,92.61
2022-11-25T07:00:05.358Z,92.61
2022-11-25T07:01:05.151Z,92.61
2022-11-25T07:02:05.262Z,92.61
2022-11-25T07:03:05.210Z,92.61
2022-11-25T07:04:05.111Z,92.71
2022-11-25T07:05:05.113Z,92.71
2022-11-25T07:06:05.103Z,92.71
2022-11-25T07:07:05.091Z,92.71
2022-11-25T07:08:05.077Z,92.71
2022-11-25T07:09:05.068Z,92.71
2022-11-25T07:10:05.051Z,92.71
2022-11-25T07:11:05.051Z,92.82
2022-11-25T07:12:05.039Z,92.82
2022-11-25T07:13:05.035Z,92.82
2022-11-25T07:14:05.003Z,92.82
2022-11-25T07:15:05.003Z,92.82
2022-11-25T07:16:05.092Z,92.82
2022-11-25T07:17:10.355Z,92.82
2022-11-25T07:18:04.966Z,92.82
2022-11-25T07:19:04.954Z,92.82
2022-11-25T07:20:04.933Z,92.82
2022-11-25T07:21:04.928Z,92.82
2022-11-25T07:22:04.916Z,92.82
2022-11-25T07:23:04.901Z,92.82
2022-11-25T07:24:04.919Z,92.82
2022-11-25T07:25:04.884Z,92.82
2022-11-25T07:26:04.906Z,92.82
2022-11-25T07:27:04.861Z,92.82
2022-11-25T07:28:04.850Z,92.67
2022-11-25T07:29:06.380Z,92.71
2022-11-25T07:31:21.147Z,92.61
2022-11-25T07:31:31.185Z,92.61
2022-11-25T07:32:10.296Z,92.46
2022-11-25T07:33:04.870Z,92.50
2022-11-25T07:34:04.779Z,92.50
2022-11-25T07:35:04.772Z,92.50
2022-11-25T07:36:04.796Z,92.46
2022-11-25T07:37:04.743Z,92.46
2022-11-25T07:38:04.730Z,92.46
2022-11-25T07:39:04.737Z,92.46
2022-11-25T07:40:04.722Z,92.46
2022-11-25T07:41:04.705Z,92.46
2022-11-25T07:42:04.708Z,92.46
2022-11-25T07:43:04.676Z,92.36
2022-11-25T07:44:04.659Z,92.46
2022-11-25T07:45:04.664Z,92.36
2022-11-25T07:46:04.671Z,92.36
2022-11-25T07:47:04.635Z,92.25
2022-11-25T07:48:04.612Z,92.25
2022-11-25T07:49:04.621Z,92.20
2022-11-25T07:50:04.593Z,92.20
2022-11-25T07:51:04.603Z,92.20
2022-11-25T07:52:04.574Z,92.20
2022-11-25T07:53:04.577Z,92.30
2022-11-25T07:54:04.550Z,92.25
2022-11-25T07:55:04.551Z,92.25
2022-11-25T07:56:04.527Z,92.16
2022-11-25T07:57:04.513Z,92.16
2022-11-25T07:58:04.517Z,92.16
2022-11-25T07:59:04.500Z,92.16
2022-11-25T08:00:04.483Z,92.16
2022-11-25T08:01:04.481Z,92.05
2022-11-25T08:02:04.564Z,91.95
2022-11-25T08:03:04.466Z,91.95
2022-11-25T08:04:04.448Z,91.85
2022-11-25T08:05:04.475Z,91.85
2022-11-25T08:06:04.422Z,91.85
2022-11-25T08:07:04.397Z,91.85
2022-11-25T08:08:04.528Z,91.85
2022-11-25T08:09:04.397Z,91.85
2022-11-25T08:10:04.375Z,91.85
2022-11-25T08:11:04.369Z,91.74
2022-11-25T08:12:04.350Z,91.74
2022-11-25T08:13:04.349Z,91.74
2022-11-25T08:14:04.335Z,91.70
2022-11-25T08:15:04.334Z,91.70
2022-11-25T08:16:04.527Z,91.70
2022-11-25T08:17:04.285Z,91.60
2022-11-25T08:18:04.301Z,91.49
2022-11-25T08:19:04.283Z,91.49
2022-11-25T08:20:04.263Z,91.39
2022-11-25T08:21:04.243Z,91.29
2022-11-25T08:22:04.245Z,91.08
2022-11-25T08:23:04.218Z,91.08
2022-11-25T08:24:04.227Z,90.98
2022-11-25T08:25:04.205Z,90.88
2022-11-25T08:26:04.195Z,90.88
2022-11-25T08:27:04.180Z,90.88
2022-11-25T08:28:04.177Z,90.88
2022-11-25T08:29:04.161Z,90.88
2022-11-25T08:30:04.162Z,90.78
2022-11-25T08:31:04.170Z,90.63
2022-11-25T08:32:08.850Z,90.53
2022-11-25T08:33:04.123Z,90.42
2022-11-25T08:34:04.106Z,90.42
2022-11-25T08:35:04.111Z,90.42
2022-11-25T08:36:04.122Z,90.42
2022-11-25T08:37:04.114Z,90.42
2022-11-25T08:38:04.055Z,90.32
2022-11-25T08:39:09.325Z,90.28
2022-11-25T08:40:04.045Z,90.18
2022-11-25T08:41:04.023Z,90.18
2022-11-25T08:42:04.026Z,90.08
2022-11-25T08:43:04.053Z,90.08
2022-11-25T08:44:03.988Z,90.08
2022-11-25T08:45:03.975Z,90.08
2022-11-25T08:46:04.021Z,89.97
2022-11-25T08:47:04.006Z,89.97
2022-11-25T08:48:03.941Z,89.97
2022-11-25T08:49:03.944Z,89.97
2022-11-25T08:50:03.935Z,89.97
2022-11-25T08:51:03.936Z,89.97
2022-11-25T08:52:03.909Z,89.87
2022-11-25T08:53:03.920Z,89.76
2022-11-25T08:54:03.887Z,89.76
2022-11-25T08:55:03.860Z,89.76
2022-11-25T08:56:03.872Z,89.76
2022-11-25T08:57:03.854Z,89.66
2022-11-25T08:58:03.831Z,89.66
2022-11-25T08:59:03.831Z,89.56
2022-11-25T09:00:03.819Z,89.46
2022-11-25T09:01:03.801Z,89.36
2022-11-25T09:02:03.873Z,89.31
2022-11-25T09:03:04.582Z,89.31
2022-11-25T09:04:03.766Z,89.31
2022-11-25T09:05:03.774Z,89.21
2022-11-25T09:06:03.744Z,89.21
2022-11-25T09:07:03.737Z,89.21
2022-11-25T09:08:03.801Z,89.11
2022-11-25T09:09:03.707Z,89.11
2022-11-25T09:10:03.717Z,89.01
2022-11-25T09:11:03.760Z,88.96
2022-11-25T09:12:03.674Z,88.96
2022-11-25T09:13:03.684Z,88.96
2022-11-25T09:14:03.733Z,89.07
2022-11-25T09:15:03.667Z,89.07
2022-11-25T09:16:03.707Z,89.07
2022-11-25T09:17:03.626Z,89.17
2022-11-25T09:18:03.609Z,89.21
2022-11-25T09:19:03.619Z,89.17
2022-11-25T09:20:03.602Z,89.27
2022-11-25T09:21:03.591Z,89.31
2022-11-25T09:22:03.565Z,89.31
2022-11-25T09:23:03.561Z,89.21
2022-11-25T09:24:03.549Z,89.21
2022-11-25T09:25:03.610Z,89.11
2022-11-25T09:26:03.524Z,89.11
2022-11-25T09:27:03.577Z,89.11
2022-11-25T09:28:03.505Z,89.21
2022-11-25T09:29:03.491Z,89.21
2022-11-25T09:30:03.490Z,89.21
2022-11-25T09:31:03.576Z,89.21
2022-11-25T09:32:03.594Z,89.31
2022-11-25T09:33:03.461Z,89.31
2022-11-25T09:34:03.472Z,89.31
2022-11-25T09:35:03.450Z,89.42
2022-11-25T09:36:03.431Z,89.42
2022-11-25T09:37:03.411Z,89.52
2022-11-25T09:38:03.392Z,89.52
2022-11-25T09:39:03.383Z,89.52
2022-11-25T09:40:03.381Z,89.52
2022-11-25T09:41:03.357Z,89.52
2022-11-25T09:42:03.342Z,89.48
2022-11-25T09:43:03.358Z,89.48
2022-11-25T09:44:03.338Z,89.48
2022-11-25T09:45:03.325Z,89.48
2022-11-25T09:46:03.357Z,89.48
2022-11-25T09:47:03.296Z,89.48
2022-11-25T09:48:03.295Z,89.43
2022-11-25T09:49:03.287Z,89.33
2022-11-25T09:50:03.272Z,89.23
2022-11-25T09:51:03.254Z,89.13
2022-11-25T09:52:03.241Z,89.13
2022-11-25T09:53:03.224Z,89.13
2022-11-25T09:54:03.213Z,89.03
2022-11-25T09:55:03.213Z,88.98
2022-11-25T09:56:03.193Z,88.88
2022-11-25T09:57:03.191Z,88.78
2022-11-25T09:58:03.174Z,88.47
2022-11-25T09:59:03.169Z,88.47
2022-11-25T10:00:03.254Z,88.43
2022-11-25T10:01:03.169Z,88.53
2022-11-25T10:02:03.192Z,88.12
2022-11-25T10:03:03.244Z,87.92
2022-11-25T10:04:03.117Z,87.88
2022-11-25T10:05:03.109Z,87.88
2022-11-25T10:06:03.125Z,87.67
2022-11-25T10:07:03.088Z,87.57
2022-11-25T10:08:03.092Z,87.41
2022-11-25T10:09:03.061Z,87.51
2022-11-25T10:10:03.057Z,87.51
2022-11-25T10:11:03.029Z,87.51
2022-11-25T10:12:03.010Z,87.30
2022-11-25T10:13:03.013Z,87.30
2022-11-25T10:14:02.992Z,87.37
2022-11-25T10:15:02.993Z,87.30
2022-11-25T10:16:03.061Z,87.30
2022-11-25T10:17:02.957Z,87.20
2022-11-25T10:18:02.955Z,87.06
2022-11-25T10:19:02.939Z,86.96
2022-11-25T10:20:02.928Z,87.06
2022-11-25T10:21:02.961Z,86.96
2022-11-25T10:22:03.014Z,87.06
2022-11-25T10:23:02.893Z,86.96
2022-11-25T10:24:02.888Z,86.85
2022-11-25T10:25:02.895Z,86.85
2022-11-25T10:26:02.876Z,86.75
2022-11-25T10:27:02.872Z,86.65
2022-11-25T10:28:02.845Z,86.44
2022-11-25T10:29:02.831Z,86.55
2022-11-25T10:30:02.818Z,86.44
2022-11-25T10:31:02.905Z,86.44
2022-11-25T10:32:02.798Z,86.44
2022-11-25T10:33:02.825Z,86.55
2022-11-25T10:34:02.776Z,86.55
2022-11-25T10:35:02.772Z,86.55
2022-11-25T10:36:02.757Z,86.44
2022-11-25T10:37:02.786Z,86.14
2022-11-25T10:38:02.773Z,86.04
2022-11-25T10:39:02.728Z,85.83
2022-11-25T10:40:02.719Z,85.22
2022-11-25T10:41:02.716Z,85.11
2022-11-25T10:42:02.681Z,85.31
2022-11-25T10:43:02.715Z,85.42
2022-11-25T10:44:02.698Z,85.31
2022-11-25T10:45:02.660Z,85.22
2022-11-25T10:46:02.743Z,85.01
2022-11-25T10:47:18.021Z,85.01
2022-11-25T10:48:02.632Z,85.01
2022-11-25T10:49:02.621Z,85.01
2022-11-25T10:50:02.618Z,85.01
2022-11-25T10:51:02.608Z,85.22
2022-11-25T10:52:02.594Z,85.22
2022-11-25T10:53:02.574Z,85.11
2022-11-25T10:54:02.569Z,84.97
2022-11-25T10:55:02.556Z,84.97
2022-11-25T10:56:02.547Z,85.03
2022-11-25T10:57:02.531Z,84.93
2022-11-25T10:58:02.528Z,84.69
2022-11-25T10:59:02.520Z,84.07
2022-11-25T11:00:02.495Z,83.76
2022-11-25T11:01:02.483Z,83.87
2022-11-25T11:02:02.488Z,83.87
2022-11-25T11:03:02.565Z,84.01
2022-11-25T11:04:02.456Z,84.01
2022-11-25T11:05:02.450Z,84.01
2022-11-25T11:06:02.422Z,84.22
2022-11-25T11:07:02.450Z,84.52
2022-11-25T11:08:02.733Z,84.63
2022-11-25T11:09:02.400Z,84.52
2022-11-25T11:10:02.391Z,84.52
2022-11-25T11:11:02.373Z,84.63
2022-11-25T11:12:02.355Z,84.63
2022-11-25T11:13:02.347Z,84.28
2022-11-25T11:14:02.343Z,84.17
2022-11-25T11:15:02.344Z,84.28
2022-11-25T11:16:02.387Z,84.28
2022-11-25T11:17:02.312Z,84.17
2022-11-25T11:18:02.311Z,84.07
2022-11-25T11:19:02.297Z,83.97
2022-11-25T11:20:02.269Z,84.17
2022-11-25T11:21:02.263Z,84.07
2022-11-25T11:22:02.241Z,84.17
2022-11-25T11:23:08.339Z,84.17
2022-11-25T11:24:02.279Z,84.07
2022-11-25T11:25:02.215Z,84.14
2022-11-25T11:26:02.228Z,83.66
2022-11-25T11:27:02.190Z,83.62
2022-11-25T11:28:02.189Z,83.73
2022-11-25T11:29:02.185Z,83.42
2022-11-25T11:30:02.155Z,83.52
2022-11-25T11:31:02.196Z,83.42
2022-11-25T11:32:02.156Z,83.28
2022-11-25T11:33:02.130Z,83.18
2022-11-25T11:34:02.122Z,82.87
2022-11-25T11:35:02.108Z,82.77
2022-11-25T11:36:02.089Z,82.87
2022-11-25T11:37:02.093Z,82.67
2022-11-25T11:38:02.067Z,82.67
2022-11-25T11:39:02.063Z,82.56
2022-11-25T11:40:02.067Z,82.36
2022-11-25T11:41:02.049Z,82.56
2022-11-25T11:42:02.044Z,82.67
2022-11-25T11:43:02.017Z,82.70
2022-11-25T11:44:02.016Z,82.70
2022-11-25T11:45:02.019Z,82.60
2022-11-25T11:46:01.986Z,82.60
2022-11-25T11:47:02.015Z,82.20
2022-11-25T11:48:01.983Z,82.50
2022-11-25T11:49:01.956Z,82.40
2022-11-25T11:50:01.940Z,82.40
2022-11-25T11:51:01.926Z,82.60
2022-11-25T11:52:01.942Z,83.01
2022-11-25T11:53:01.916Z,82.91
2022-11-25T11:54:01.899Z,82.91
2022-11-25T11:55:01.895Z,82.81
2022-11-25T11:57:01.876Z,82.91
2022-11-25T11:58:01.853Z,82.87
2022-11-25T11:59:01.854Z,82.77
2022-11-25T12:00:01.838Z,82.67
2022-11-25T12:01:01.848Z,82.67
2022-11-25T12:02:01.896Z,82.77
2022-11-25T12:03:01.873Z,82.87
2022-11-25T12:04:01.785Z,82.77
2022-11-25T12:05:01.825Z,82.97
2022-11-25T12:06:01.770Z,82.56
2022-11-25T12:07:01.767Z,82.26
2022-11-25T12:08:01.827Z,82.26
2022-11-25T12:09:01.733Z,82.36
2022-11-25T12:10:01.719Z,82.77
2022-11-25T12:11:01.710Z,82.97
2022-11-25T12:12:01.699Z,82.77
2022-11-25T12:13:01.698Z,82.77
2022-11-25T12:14:01.679Z,82.67
2022-11-25T12:15:01.668Z,82.67
2022-11-25T12:16:01.750Z,82.40
2022-11-25T12:17:01.640Z,81.88
2022-11-25T12:18:01.633Z,81.68
2022-11-25T12:19:01.672Z,81.79
2022-11-25T12:20:01.622Z,82.09
2022-11-25T12:21:01.596Z,82.29
2022-11-25T12:22:01.589Z,82.40
2022-11-25T12:23:01.578Z,82.29
2022-11-25T12:24:01.578Z,82.20
2022-11-25T12:25:01.576Z,82.09
2022-11-25T12:26:01.560Z,82.29
2022-11-25T12:27:01.525Z,82.20
2022-11-25T12:28:01.516Z,82.20
2022-11-25T12:29:01.520Z,82.20
2022-11-25T12:30:01.495Z,82.09
2022-11-25T12:31:04.983Z,81.99
2022-11-25T12:32:01.576Z,81.79
2022-11-25T12:33:01.573Z,81.58
2022-11-25T12:34:01.459Z,81.58
2022-11-25T12:35:01.443Z,81.68
2022-11-25T12:36:01.431Z,81.58
2022-11-25T12:37:01.430Z,81.48
2022-11-25T12:38:01.410Z,81.17
2022-11-25T12:39:01.404Z,81.48
2022-11-25T12:40:01.385Z,81.38
2022-11-25T12:41:01.372Z,81.41
2022-11-25T12:42:01.410Z,81.58
2022-11-25T12:43:01.359Z,81.72
2022-11-25T12:44:01.355Z,81.51
2022-11-25T12:45:01.338Z,81.51
2022-11-25T12:46:01.389Z,81.62
2022-11-25T12:47:01.320Z,81.62
2022-11-25T12:48:01.304Z,81.41
2022-11-25T12:49:01.281Z,81.51
2022-11-25T12:50:01.285Z,81.51
2022-11-25T12:51:01.279Z,81.41
2022-11-25T12:52:01.257Z,81.48
2022-11-25T12:53:01.243Z,81.48